Date,TemperatureHighF,TemperatureAvgF,TemperatureLowF,DewpointHighF,DewpointAvgF,DewpointLowF,HumidityHigh,HumidityAvg,HumidityLow,PressureMaxIn,PressureMinIn,WindSpeedMaxMPH,WindSpeedAvgMPH,GustSpeedMaxMPH,PrecipitationSumIn
2013-1-1,34.9,25.9,15.8,27.4,17.2,9.2,82,69,60,30.06,29.86,30,5,30,0.00
2013-1-2,25.2,20.6,13.7,21.4,14.7,8.2,87,78,67,30.27,30.01,22,3,22,0.00
2013-1-3,30.0,21.8,11.4,26.1,17.3,6.4,90,83,75,30.27,30.00,22,3,22,0.02
2013-1-4,34.9,31.6,27.6,27.0,24.8,21.3,82,75,71,30.02,29.90,40,8,40,0.00
2013-1-5,36.5,33.2,30.7,28.6,26.0,23.8,78,75,64,30.31,30.02,27,3,27,0.00
2013-1-6,37.9,34.7,31.7,31.1,29.2,24.4,87,80,73,30.09,29.90,21,3,27,0.02
2013-1-7,34.4,28.6,25.7,30.6,23.2,21.0,88,80,67,30.43,30.09,21,2,21,0.00
2013-1-8,39.7,31.7,26.0,28.0,23.1,18.2,79,71,58,30.36,30.18,15,2,15,0.00
2013-1-9,48.7,37.2,28.2,36.2,29.0,22.2,83,72,61,30.33,29.95,33,5,33,0.00
2013-1-10,41.4,37.1,33.7,32.1,29.6,27.5,84,74,64,30.62,30.33,32,2,32,0.00
2013-1-11,43.0,38.7,34.4,39.9,32.7,26.4,90,79,64,30.46,29.92,22,4,22,0.18
2013-1-12,57.3,48.5,40.5,49.9,44.4,38.2,94,86,76,30.02,29.95,15,2,15,0.00
2013-1-13,68.3,55.8,46.6,57.3,50.5,43.7,92,83,67,29.98,29.73,22,4,28,0.00
2013-1-14,52.1,37.0,29.4,48.8,29.8,20.5,90,75,65,30.41,29.73,30,3,30,0.00
2013-1-15,34.6,30.0,28.2,23.6,21.7,19.5,79,71,56,30.43,30.22,14,1,14,0.00
2013-1-16,38.2,32.6,29.2,30.0,25.6,22.7,84,75,63,30.22,29.79,20,3,20,0.00
2013-1-17,35.8,26.0,17.7,28.8,18.6,11.2,88,74,63,30.22,29.85,36,4,36,0.00
2013-1-18,31.8,21.2,13.0,17.4,12.5,6.8,89,70,48,30.45,30.06,21,3,21,0.02
2013-1-19,48.1,41.8,31.8,30.4,24.8,17.1,58,51,39,30.06,29.60,20,5,34,0.01
2013-1-20,48.4,31.9,19.7,35.6,20.2,10.5,87,63,43,30.10,29.43,46,10,46,0.01
2013-1-21,22.4,19.6,15.2,14.3,10.5,7.4,76,67,62,30.10,29.90,26,4,26,0.00
2013-1-22,15.2,11.4,7.8,7.5,1.3,-4.1,86,64,47,30.22,29.92,34,7,34,0.00
2013-1-23,12.6,8.1,3.6,9.0,4.2,-0.4,88,84,73,30.28,30.16,20,2,20,0.00
2013-1-24,13.6,8.9,3.3,8.9,4.8,-0.2,91,83,75,30.57,30.15,32,2,32,0.10
2013-1-25,15.8,11.5,8.1,10.9,7.5,5.3,88,84,70,30.56,30.16,8,2,10,0.00
2013-1-26,23.1,14.5,6.0,17.5,10.6,3.1,92,84,66,30.46,30.17,10,1,14,0.00
2013-1-27,27.3,21.5,18.1,17.7,15.7,13.3,90,79,62,30.63,30.45,10,2,10,0.00
2013-1-28,39.2,30.7,21.3,38.8,28.2,16.4,99,90,74,30.46,29.89,16,3,16,0.40
2013-1-29,52.1,38.7,30.4,51.3,38.3,30.1,100,99,97,30.11,29.78,16,2,16,0.45
2013-1-30,63.5,55.9,49.6,55.7,50.5,47.9,98,82,67,29.78,29.04,38,5,38,0.05
2013-1-31,54.1,31.2,21.9,50.8,22.8,10.5,95,72,49,29.73,29.03,50,10,50,0.18
2013-2-1,22.3,19.3,17.4,16.7,12.8,8.0,90,76,59,30.24,29.73,33,6,33,0.06
2013-2-2,20.5,17.3,14.2,13.7,9.8,5.7,85,72,63,30.24,30.03,22,4,22,0.00
2013-2-3,24.5,18.3,11.7,16.6,12.9,8.9,91,80,58,30.03,29.84,22,2,22,0.00
2013-2-4,21.6,18.8,16.0,14.4,11.5,8.7,89,73,59,30.00,29.89,26,4,26,0.00
2013-2-5,25.5,20.5,15.3,19.2,15.0,11.8,91,79,67,30.03,29.90,12,1,15,0.00
2013-2-6,27.1,22.6,15.5,23.8,16.0,9.5,91,76,57,30.45,29.91,30,4,30,0.02
2013-2-7,30.3,22.5,14.2,22.8,14.8,10.2,90,72,60,30.52,30.15,16,3,16,0.00
2013-2-8,32.2,28.1,18.4,31.4,24.7,17.0,97,88,65,30.15,29.83,21,2,21,0.74
2013-2-9,20.7,17.4,12.1,18.2,15.5,10.1,95,92,89,30.48,30.13,12,1,12,0.02
2013-2-10,33.3,20.6,7.1,24.7,15.8,5.0,93,82,67,30.48,30.02,18,3,18,0.00
2013-2-11,50.7,37.4,32.4,41.3,30.4,24.5,88,76,64,30.02,29.58,44,8,44,0.06
2013-2-12,34.2,32.0,30.2,29.5,26.7,23.6,92,81,67,30.00,29.72,38,7,38,0.02
2013-2-13,39.2,31.0,24.6,25.2,23.9,21.0,89,76,55,29.96,29.77,14,1,15,0.00
2013-2-14,38.3,32.0,24.5,34.0,27.2,21.7,94,83,63,29.97,29.81,15,2,15,0.14
2013-2-15,37.8,33.7,24.6,34.5,24.6,16.4,93,69,53,30.10,29.81,36,6,36,0.00
2013-2-16,27.2,23.7,21.2,20.5,17.1,15.2,84,76,66,30.10,29.97,15,2,15,0.00
2013-2-17,21.8,15.9,12.1,18.3,11.0,5.6,91,81,69,30.23,29.95,40,5,40,0.07
2013-2-18,29.9,20.5,11.3,17.3,12.1,6.3,90,71,54,30.35,29.97,24,4,24,0.00
2013-2-19,43.7,33.2,25.7,35.9,24.6,17.3,89,71,56,29.97,29.57,40,7,40,0.12
2013-2-20,25.8,21.7,18.7,19.0,14.8,11.9,86,75,64,30.09,29.78,40,8,45,0.00
2013-2-21,20.9,16.8,12.5,16.7,12.9,7.4,91,84,78,30.48,30.07,39,6,39,0.00
2013-2-22,33.4,25.9,18.1,27.5,21.5,14.9,94,84,71,30.46,30.07,20,4,20,0.00
2013-2-23,38.2,33.2,30.7,32.9,29.1,24.5,96,85,78,30.07,29.90,16,2,16,0.06
2013-2-24,32.7,30.4,29.1,27.7,25.3,22.9,91,81,70,30.09,29.89,21,3,21,0.01
2013-2-25,35.6,32.3,28.1,28.7,27.4,25.3,91,82,68,30.28,30.09,24,2,24,0.00
2013-2-26,42.0,33.6,25.5,31.3,27.3,23.4,96,79,57,30.29,29.90,24,4,24,0.44
2013-2-27,34.4,32.3,31.3,33.4,31.3,30.0,98,96,94,29.90,29.61,15,2,15,0.61
2013-2-28,36.3,33.2,31.3,32.6,31.6,30.8,98,94,83,29.75,29.57,12,2,12,0.03
2013-3-1,32.6,29.5,26.7,31.6,26.1,22.0,96,87,81,29.96,29.75,28,3,28,0.03
2013-3-2,26.7,24.0,21.9,23.0,20.8,19.0,94,87,80,29.99,29.91,20,3,20,0.02
2013-3-3,24.4,22.4,20.9,21.2,18.7,15.8,95,86,72,29.94,29.90,26,3,26,0.02
2013-3-4,29.0,25.2,21.3,22.9,19.7,16.9,88,80,69,30.08,29.93,30,6,30,0.00
2013-3-5,30.8,26.5,23.6,25.2,22.3,20.0,92,84,76,30.15,30.03,18,2,24,0.00
2013-3-6,39.2,31.8,22.3,33.1,28.3,20.1,93,87,72,30.19,30.02,16,2,16,0.00
2013-3-7,35.6,33.2,30.4,33.1,29.7,23.5,95,87,73,30.32,30.17,18,2,18,0.00
2013-3-8,39.6,33.2,29.9,26.7,24.9,23.0,83,72,54,30.43,30.30,26,2,27,0.00
2013-3-9,44.9,34.1,24.9,34.2,27.6,23.2,97,78,57,30.46,30.27,12,2,12,0.00
2013-3-10,59.5,47.0,33.7,32.9,28.8,25.9,73,51,33,30.27,30.00,10,4,21,0.00
2013-3-11,53.1,49.9,46.7,44.3,33.0,28.9,72,52,47,30.02,29.70,28,6,28,0.00
2013-3-12,53.7,39.3,33.6,46.4,34.4,27.8,97,83,72,29.95,29.70,32,5,32,0.24
2013-3-13,37.0,31.3,22.7,28.9,24.4,17.6,88,75,59,29.97,29.85,28,5,28,0.00
2013-3-14,30.0,23.9,18.4,18.3,12.4,7.0,87,63,39,30.10,29.97,50,9,50,0.00
2013-3-15,37.1,30.1,23.8,30.8,22.8,13.9,96,75,56,30.09,29.73,34,5,34,0.03
2013-3-16,29.0,24.4,18.1,20.3,17.0,14.7,87,73,64,30.03,29.90,16,2,18,0.00
2013-3-17,30.2,24.0,18.1,20.6,15.8,9.6,91,72,51,30.40,30.03,21,2,21,0.01
2013-3-18,33.3,24.7,16.9,28.2,16.9,10.0,94,74,46,30.40,29.79,30,5,30,0.18
2013-3-19,35.9,31.3,25.6,32.6,26.3,19.3,94,82,60,29.86,29.72,36,5,36,0.00
2013-3-20,33.7,27.1,23.2,23.7,19.5,14.6,87,74,47,29.87,29.82,27,5,27,0.00
2013-3-21,31.2,25.4,19.5,24.5,17.6,12.7,92,73,49,29.86,29.75,27,5,27,0.00
2013-3-22,31.7,27.8,24.1,26.1,23.8,20.9,93,85,72,29.94,29.76,30,5,30,0.10
2013-3-23,36.5,31.8,28.2,26.9,24.9,22.4,91,76,62,30.03,29.92,33,5,33,0.00
2013-3-24,38.4,32.1,25.4,27.9,24.2,20.2,92,73,54,30.04,29.78,18,2,18,0.01
2013-3-25,39.2,34.1,30.7,29.7,26.6,23.5,91,74,62,29.79,29.65,22,3,22,0.00
2013-3-26,44.1,36.8,29.8,33.7,29.1,26.6,92,74,57,29.96,29.75,15,2,15,0.00
2013-3-27,44.4,36.4,31.7,34.0,30.0,26.2,96,78,58,30.09,29.94,24,4,24,0.00
2013-3-28,43.7,37.7,32.6,35.1,31.4,26.9,94,79,54,30.21,30.07,14,3,21,0.00
2013-3-29,49.2,40.7,35.8,34.3,31.3,26.4,86,70,47,30.22,30.13,20,2,20,0.00
2013-3-30,49.5,39.2,29.1,31.1,25.7,19.1,84,61,31,30.22,30.07,16,1,16,0.00
2013-3-31,56.4,43.9,37.0,42.0,31.7,23.5,93,65,37,30.07,29.63,24,4,24,0.08
2013-4-1,43.9,35.1,25.7,39.8,26.2,12.8,94,71,40,29.97,29.57,50,6,50,0.05
2013-4-2,33.1,27.7,22.8,26.3,19.9,15.5,89,73,49,30.13,29.96,45,7,45,0.08
2013-4-3,35.9,29.9,25.4,23.9,17.9,13.1,83,62,42,30.40,30.12,34,6,34,0.00
2013-4-4,54.6,36.4,24.6,23.5,19.7,17.2,75,54,23,30.38,29.92,20,2,20,0.00
2013-4-5,42.2,36.9,30.5,31.0,24.7,16.0,74,61,43,30.18,29.89,36,4,36,0.00
2013-4-6,44.2,35.0,25.6,22.2,18.8,13.2,74,53,33,30.36,30.07,21,3,21,0.00
2013-4-7,70.0,52.3,42.0,45.8,31.9,19.7,73,47,34,30.07,29.69,36,7,36,0.00
2013-4-8,52.7,44.0,39.3,43.2,35.5,32.4,93,73,53,30.16,29.76,18,2,21,0.06
2013-4-9,55.3,47.3,41.5,49.7,42.4,38.8,96,83,65,30.13,29.74,33,4,36,0.62
2013-4-10,44.8,40.4,37.6,43.7,39.3,36.4,97,96,92,30.10,29.91,18,2,21,0.52
2013-4-11,37.7,33.4,30.8,36.4,30.4,25.2,96,89,68,30.18,29.99,24,4,24,0.34
2013-4-12,49.7,39.5,32.8,47.2,36.9,30.5,99,90,74,30.02,29.55,34,6,34,0.78
2013-4-13,45.7,41.4,38.6,37.3,34.3,30.9,85,76,60,29.94,29.78,32,6,32,0.00
2013-4-14,44.3,38.5,34.4,34.0,29.4,25.7,91,70,53,30.23,29.94,26,3,26,0.05
2013-4-15,73.5,53.6,34.5,49.9,39.2,25.5,73,60,40,30.22,30.01,22,4,22,0.00
2013-4-16,64.4,54.9,42.4,57.9,48.6,34.7,98,80,66,30.25,29.97,30,4,30,0.15
2013-4-17,52.4,44.1,34.7,37.8,33.1,29.3,89,67,44,30.39,30.25,18,2,18,0.00
2013-4-18,76.5,59.8,42.2,57.0,47.3,32.0,76,64,46,30.28,29.71,30,6,30,0.01
2013-4-19,72.0,58.1,40.8,58.9,48.7,30.6,87,71,60,29.77,29.36,44,8,44,0.12
2013-4-20,41.9,37.6,32.9,33.1,26.3,19.6,88,64,52,30.44,29.74,38,7,38,0.01
2013-4-21,41.9,35.0,28.9,25.7,21.2,12.4,74,58,35,30.72,30.43,18,2,18,0.00
2013-4-22,57.5,45.3,31.6,31.0,25.5,20.7,68,48,31,30.65,30.35,22,4,26,0.00
2013-4-23,60.3,50.4,38.9,38.3,33.5,27.8,71,53,42,30.35,29.96,21,5,24,0.00
2013-4-24,67.5,53.1,38.6,54.2,42.8,33.2,91,69,51,29.99,29.59,36,6,36,0.13
2013-4-25,55.1,43.6,34.9,38.5,32.1,25.4,92,67,34,30.32,29.98,30,3,30,0.06
2013-4-26,51.6,43.8,35.9,38.9,32.9,27.9,94,68,44,30.50,30.32,18,2,18,0.02
2013-4-27,66.5,49.4,37.3,38.0,33.1,29.5,77,56,33,30.46,30.23,18,2,18,0.00
2013-4-28,73.7,60.0,49.7,47.4,38.7,34.2,85,48,25,30.23,30.02,21,4,21,0.05
2013-4-29,63.2,56.2,49.3,51.2,48.2,45.1,89,75,60,30.06,29.98,18,5,18,0.06
2013-4-30,72.5,61.7,54.0,53.9,51.6,49.5,90,71,49,30.22,30.04,18,4,18,0.02
2013-5-1,76.6,65.3,57.1,50.9,42.7,33.2,76,48,22,30.34,30.22,20,3,20,0.00
2013-5-2,74.5,64.0,53.3,43.6,37.5,32.2,50,38,26,30.41,30.26,18,2,18,0.00
2013-5-3,75.8,65.4,53.2,47.7,41.9,34.9,62,43,31,30.30,30.21,14,2,14,0.00
2013-5-4,74.1,62.2,49.3,44.3,40.5,36.0,65,46,30,30.28,30.14,15,1,15,0.00
2013-5-5,73.6,61.2,45.6,47.1,42.7,37.5,83,53,36,30.20,30.09,15,1,16,0.00
2013-5-6,76.7,61.5,51.0,46.0,38.6,28.9,61,44,20,30.16,30.02,18,1,18,0.00
2013-5-7,74.5,63.9,52.4,53.7,49.4,42.3,85,60,44,30.11,30.01,15,1,15,0.00
2013-5-8,68.8,61.9,56.5,59.4,53.9,46.6,93,76,61,30.05,29.91,16,1,16,0.02
2013-5-9,67.7,59.4,54.3,58.9,55.5,52.9,96,87,69,29.94,29.86,18,1,18,0.18
2013-5-10,72.3,60.2,51.6,61.4,55.5,49.8,95,85,64,29.94,29.71,10,0,10,0.34
2013-5-11,57.9,52.9,46.2,56.6,49.4,43.1,96,88,72,29.77,29.64,16,1,16,0.10
2013-5-12,49.9,43.7,38.1,45.4,35.9,30.5,94,75,50,29.91,29.68,38,3,38,0.03
2013-5-13,49.7,41.5,36.2,34.3,31.9,29.1,82,69,48,30.12,29.91,30,3,30,0.00
2013-5-14,58.2,45.1,31.9,36.7,33.0,29.3,94,65,38,30.17,29.97,10,1,10,0.00
2013-5-15,79.3,59.0,45.1,60.8,44.6,30.2,89,60,40,29.97,29.49,33,2,34,0.06
2013-5-16,74.2,61.8,49.6,47.5,42.5,33.8,78,51,28,30.00,29.70,26,2,26,0.00
2013-5-17,66.3,52.9,39.9,44.4,40.8,37.2,93,66,35,30.23,30.00,14,1,14,0.00
2013-5-18,69.2,56.6,42.6,49.4,42.7,37.9,86,62,42,30.27,30.14,14,1,14,0.00
2013-5-19,78.5,66.1,56.7,62.3,56.1,49.0,83,71,55,30.14,29.97,10,1,10,0.00
2013-5-20,80.2,70.5,61.8,65.1,61.3,56.6,85,73,59,30.02,29.84,15,1,16,0.00
2013-5-21,82.0,68.4,57.2,70.2,62.3,55.3,94,82,64,29.90,29.74,24,1,24,0.10
2013-5-22,84.3,69.5,56.6,72.3,64.3,54.9,98,85,58,29.78,29.61,15,1,15,0.21
2013-5-23,74.2,65.2,43.9,63.7,57.8,42.1,95,78,58,29.89,29.67,20,2,20,0.06
2013-5-24,49.2,41.6,36.9,42.1,37.9,35.5,96,87,64,30.19,29.89,21,3,21,0.28
2013-5-25,56.9,48.1,40.9,40.2,36.6,33.7,82,66,44,30.22,30.12,22,3,22,0.00
2013-5-26,61.8,52.1,44.7,40.1,37.1,34.3,80,58,37,30.20,30.11,16,3,24,0.00
2013-5-27,68.5,54.2,41.7,47.8,37.8,29.0,83,57,24,30.27,30.13,15,1,15,0.00
2013-5-28,61.6,56.5,52.4,57.5,48.8,36.0,95,77,49,30.15,29.93,8,1,8,0.48
2013-5-29,80.2,69.0,57.8,68.0,62.1,56.4,97,80,53,30.00,29.88,39,1,39,0.50
2013-5-30,89.0,75.7,63.9,67.9,62.6,56.7,89,67,34,30.09,30.00,14,1,14,0.00
2013-5-31,90.5,77.3,65.8,68.3,63.9,60.6,84,65,40,30.05,29.89,10,1,10,0.00
2013-6-1,87.0,74.3,66.5,69.1,64.5,60.8,94,73,50,29.95,29.73,16,1,16,0.36
2013-6-2,76.4,68.2,54.9,66.5,61.2,49.7,96,80,51,29.86,29.66,30,2,30,0.56
2013-6-3,61.9,54.9,49.6,50.0,44.0,40.1,84,68,47,30.01,29.86,18,2,22,0.00
2013-6-4,67.2,56.1,47.1,44.8,40.8,33.8,83,59,34,30.16,30.01,20,2,20,0.00
2013-6-5,67.8,57.7,50.1,51.9,43.6,36.2,78,60,40,30.22,30.09,10,1,10,0.00
2013-6-6,56.6,54.7,52.6,54.9,51.2,44.7,95,88,66,30.09,29.84,15,1,15,1.71
2013-6-7,58.2,55.9,53.5,57.7,55.1,53.2,100,97,95,29.85,29.78,6,0,6,0.10
2013-6-8,63.1,57.0,53.7,59.7,56.0,53.7,100,97,85,30.07,29.79,9,0,9,0.03
2013-6-9,75.7,63.7,53.1,59.6,55.1,51.4,96,75,51,30.19,30.06,14,1,14,0.00
2013-6-10,68.2,63.9,61.2,63.6,59.7,54.9,98,87,75,30.12,29.69,14,1,14,0.10
2013-6-11,65.2,61.9,56.4,63.4,59.4,52.6,99,92,79,29.83,29.62,18,1,22,0.21
2013-6-12,73.7,63.0,52.0,56.7,54.2,50.3,95,75,53,29.93,29.76,14,1,14,0.01
2013-6-13,64.2,59.1,53.7,57.4,55.5,52.0,95,88,74,29.78,29.51,26,1,26,0.69
2013-6-14,72.8,61.6,50.5,59.2,54.8,49.1,97,80,57,29.95,29.78,16,1,16,0.00
2013-6-15,73.5,63.3,50.6,54.7,50.1,41.3,88,64,34,30.04,29.92,12,1,12,0.00
2013-6-16,74.2,65.4,60.3,65.1,58.6,52.3,96,79,67,29.92,29.68,20,1,20,0.21
2013-6-17,76.6,67.3,59.7,64.3,59.2,55.5,94,76,52,29.91,29.80,16,1,16,0.00
2013-6-18,69.7,60.0,53.3,55.8,50.8,46.8,91,73,48,30.02,29.88,16,1,16,0.01
2013-6-19,66.8,57.7,47.5,50.7,45.5,37.8,92,66,36,30.20,30.02,15,1,15,0.00
2013-6-20,71.7,58.7,43.5,53.2,45.8,38.0,96,66,31,30.26,30.20,15,1,15,0.00
2013-6-21,80.0,65.4,49.9,59.2,52.9,45.6,91,66,45,30.27,30.15,15,0,15,0.00
2013-6-22,82.2,70.7,57.8,72.7,64.8,54.0,97,83,56,30.16,29.99,9,0,9,0.21
2013-6-23,86.5,76.7,67.4,73.1,68.8,63.9,98,78,58,30.05,29.96,15,1,15,0.01
2013-6-24,86.5,78.0,70.3,71.3,65.7,61.4,82,67,47,30.00,29.90,18,1,18,0.00
2013-6-25,82.3,74.4,67.4,71.2,66.0,62.6,93,75,63,29.92,29.76,18,1,18,0.06
2013-6-26,82.9,73.3,67.0,71.3,66.8,63.3,94,81,62,29.80,29.75,16,1,16,0.00
2013-6-27,79.3,71.2,63.1,72.0,66.6,61.5,95,86,73,29.79,29.58,9,0,9,0.00
2013-6-28,66.2,62.9,60.2,64.5,61.6,59.1,97,96,93,29.60,29.50,10,0,10,0.22
2013-6-29,75.0,65.0,60.3,65.4,61.4,59.5,98,89,66,29.68,29.49,15,1,15,0.62
2013-6-30,75.4,67.5,59.2,66.2,62.2,58.1,98,84,66,29.92,29.68,16,1,16,0.00
2013-7-1,66.0,63.4,59.5,63.1,61.2,57.8,97,92,85,30.04,29.91,21,2,21,0.26
2013-7-2,73.8,64.8,59.5,67.6,62.3,58.1,98,92,78,30.10,30.01,15,1,16,0.04
2013-7-3,84.3,70.7,62.8,75.1,67.8,61.9,98,91,72,30.14,30.07,10,0,10,0.33
2013-7-4,85.8,73.8,68.1,73.4,69.8,67.2,98,88,59,30.16,30.08,14,0,14,0.07
2013-7-5,82.6,74.4,68.8,75.1,70.4,67.4,96,88,71,30.12,30.04,9,0,15,0.15
2013-7-6,86.4,75.2,66.1,70.5,67.3,64.2,97,78,51,30.13,30.00,8,0,9,0.01
2013-7-7,84.0,75.5,68.4,73.0,68.8,64.9,98,81,61,30.03,29.91,20,1,20,0.63
2013-7-8,83.5,74.1,68.2,73.3,69.0,64.8,97,85,67,30.03,29.95,10,0,10,0.08
2013-7-9,82.5,73.9,68.4,72.2,69.3,66.9,96,86,66,30.03,29.88,9,0,9,0.09
2013-7-10,86.0,76.3,69.0,73.9,69.7,63.8,96,81,65,29.88,29.68,18,1,18,0.00
2013-7-11,75.9,68.7,62.4,65.7,60.5,56.8,92,76,59,30.01,29.79,20,2,20,0.00
2013-7-12,74.8,66.7,59.8,66.0,61.6,58.3,97,84,67,30.17,30.01,10,0,12,0.00
2013-7-13,80.3,71.6,61.8,70.3,66.1,60.2,97,84,68,30.23,30.15,8,0,8,0.00
2013-7-14,88.2,76.8,67.4,73.9,69.2,65.7,95,79,60,30.29,30.23,14,1,14,0.00
2013-7-15,90.0,79.4,72.6,74.8,69.7,62.4,91,74,47,30.28,30.20,9,1,10,0.00
2013-7-16,90.7,79.1,68.9,72.5,67.3,63.4,91,69,45,30.26,30.18,14,0,14,0.00
2013-7-17,93.3,82.3,71.9,78.7,72.6,66.9,87,74,54,30.20,30.03,15,0,16,0.00
2013-7-18,89.3,81.1,72.9,79.0,75.1,69.3,96,82,66,30.06,29.90,15,0,15,0.45
2013-7-19,92.2,82.1,69.5,76.8,71.9,65.7,93,73,51,29.91,29.67,32,2,32,0.25
2013-7-20,69.4,69.1,68.8,67.4,67.2,67.0,95,94,93,29.80,29.72,6,1,6,0.15
2013-7-21,76.2,70.3,61.2,61.9,59.6,57.9,90,70,56,30.00,29.96,16,1,16,0.00
2013-7-22,81.0,69.6,59.4,67.5,62.3,57.1,93,79,57,29.99,29.75,14,0,14,0.02
2013-7-23,86.0,74.3,67.4,71.3,66.9,59.2,96,79,50,29.76,29.58,21,1,21,0.02
2013-7-24,68.6,62.7,54.3,59.6,53.3,48.8,89,72,55,30.04,29.66,24,2,24,0.00
2013-7-25,75.3,62.6,51.1,57.3,53.0,49.2,93,73,44,30.12,30.04,15,1,15,0.00
2013-7-26,77.7,64.9,52.8,61.5,55.0,50.9,94,73,42,30.12,29.99,15,0,15,0.00
2013-7-27,79.8,69.4,59.7,67.9,62.4,54.4,95,79,59,30.00,29.81,8,0,8,0.10
2013-7-28,73.0,67.4,60.3,67.0,63.2,58.2,96,87,66,29.97,29.78,15,1,15,0.08
2013-7-29,73.3,64.8,57.5,60.1,57.2,53.6,94,77,54,30.11,29.96,18,0,18,0.00
2013-7-30,75.8,66.5,57.2,62.5,58.8,55.0,93,77,56,30.18,30.11,16,1,16,0.00
2013-7-31,81.6,68.8,57.8,67.1,61.0,55.7,94,78,48,30.14,29.91,8,0,9,0.00
2013-8-1,77.0,69.2,64.9,69.6,64.1,60.6,96,84,64,29.91,29.75,16,1,20,0.42
2013-8-2,74.7,65.9,60.2,64.8,61.7,58.8,96,87,63,29.88,29.81,9,0,9,0.22
2013-8-3,76.5,67.9,61.1,63.4,60.1,54.4,97,78,48,29.90,29.80,18,1,18,0.28
2013-8-4,71.3,65.7,60.3,60.2,56.5,52.8,89,73,57,30.03,29.90,27,2,27,0.00
2013-8-5,75.8,64.8,53.7,59.7,54.8,50.5,94,72,43,30.09,30.01,10,0,14,0.00
2013-8-6,79.6,66.9,55.5,63.1,57.7,52.9,92,74,44,30.04,29.97,14,0,14,0.00
2013-8-7,81.3,72.5,64.4,69.1,64.6,60.1,87,77,64,29.97,29.85,12,1,12,0.00
2013-8-8,81.6,73.3,67.3,72.1,68.3,64.1,96,85,72,29.93,29.87,16,0,16,0.05
2013-8-9,78.0,70.5,65.8,71.0,66.8,60.6,97,89,64,29.90,29.82,10,0,10,0.72
2013-8-10,71.8,65.7,57.2,61.7,56.7,49.3,94,74,48,30.07,29.90,20,1,20,0.00
2013-8-11,77.1,64.6,54.4,61.2,56.6,52.1,95,77,54,30.12,30.02,10,0,10,0.00
2013-8-12,78.4,68.2,59.5,65.0,60.9,56.6,91,78,54,30.04,29.83,9,0,9,0.00
2013-8-13,72.3,65.9,59.7,67.3,60.8,50.1,97,84,62,29.84,29.72,21,1,21,0.41
2013-8-14,69.3,61.0,54.9,56.1,52.2,49.5,93,74,52,30.06,29.82,22,2,22,0.01
2013-8-15,74.8,62.7,51.7,58.2,52.9,49.0,91,72,49,30.12,30.05,18,1,18,0.00
2013-8-16,77.5,65.5,53.9,60.0,55.6,51.4,92,72,49,30.19,30.10,12,0,12,0.00
2013-8-17,79.7,67.5,56.3,62.8,58.4,54.3,93,75,47,30.28,30.18,12,0,12,0.00
2013-8-18,81.2,68.9,58.7,65.3,60.6,56.1,92,76,49,30.24,30.08,9,0,9,0.00
2013-8-19,79.9,70.1,61.4,68.4,62.3,58.7,91,77,52,30.10,30.00,10,0,10,0.00
2013-8-20,84.7,71.8,60.8,67.8,62.2,58.0,91,74,49,30.10,30.03,15,1,15,0.00
2013-8-21,86.3,72.2,62.8,68.5,63.8,59.7,91,76,50,30.13,29.99,9,0,9,0.00
2013-8-22,85.0,73.9,66.5,71.8,66.6,60.1,88,78,62,30.00,29.87,20,1,20,0.00
2013-8-23,73.3,66.0,56.7,62.5,58.7,54.0,92,78,59,30.20,29.95,18,1,18,0.00
2013-8-24,77.0,63.9,53.9,59.4,53.7,48.6,95,73,38,30.35,30.20,14,0,14,0.00
2013-8-25,83.4,68.7,53.5,63.0,56.6,51.5,93,68,40,30.33,30.10,10,0,10,0.01
2013-8-26,76.9,69.8,65.1,71.7,66.3,61.3,96,89,69,30.12,29.90,14,0,14,1.11
2013-8-27,83.6,72.6,67.8,73.5,69.5,66.7,97,90,71,29.92,29.85,10,0,10,0.00
2013-8-28,82.4,74.1,68.8,73.3,69.8,67.3,96,87,71,29.92,29.82,15,1,15,0.01
2013-8-29,80.8,72.4,66.0,72.6,68.7,64.3,98,89,68,30.02,29.92,15,1,15,0.00
2013-8-30,83.7,73.4,63.3,72.4,66.9,62.1,96,82,55,30.00,29.72,8,0,8,0.01
2013-8-31,78.5,72.7,68.9,73.2,69.9,66.8,97,91,81,29.83,29.68,16,0,16,0.20
2013-9-1,80.0,72.3,67.6,71.1,68.4,66.4,97,88,73,29.83,29.73,16,0,16,0.12
2013-9-2,83.4,71.5,63.8,74.4,68.3,58.7,97,90,70,29.76,29.63,20,0,20,0.18
2013-9-3,66.8,64.2,62.0,60.4,58.5,56.6,87,82,73,29.91,29.75,18,1,18,0.01
2013-9-4,78.8,67.1,55.8,64.0,57.3,51.9,92,73,40,29.96,29.91,22,1,22,0.01
2013-9-5,66.7,60.5,51.2,61.2,49.6,41.6,88,68,48,30.20,29.94,24,1,24,0.00
2013-9-6,71.0,57.4,45.5,53.6,48.2,42.7,90,73,47,30.28,30.07,9,0,9,0.00
2013-9-7,63.9,59.5,53.3,60.4,55.4,49.6,92,86,74,30.07,29.83,9,0,9,0.05
2013-9-8,65.8,60.8,49.2,64.3,51.8,43.7,97,74,48,30.10,29.82,28,2,28,0.06
2013-9-9,77.9,61.1,46.7,62.1,53.0,44.2,92,76,52,30.15,29.93,9,0,9,0.00
2013-9-10,90.9,78.2,66.6,77.7,70.6,61.2,96,78,63,29.94,29.85,20,1,20,0.40
2013-9-11,91.3,82.4,75.7,76.8,72.8,66.6,86,73,54,29.98,29.84,14,1,14,0.00
2013-9-12,75.7,69.4,62.2,69.3,66.2,59.2,95,90,74,29.88,29.68,21,0,21,0.07
2013-9-13,62.7,55.4,51.1,60.2,52.4,47.0,95,90,84,29.99,29.70,24,2,24,0.78
2013-9-14,60.1,52.7,45.9,49.4,45.7,42.8,90,77,63,30.11,29.98,18,1,18,0.00
2013-9-15,67.8,56.7,46.6,56.5,49.7,43.3,93,78,61,30.14,30.02,20,0,20,0.05
2013-9-16,54.4,51.0,43.2,53.2,48.7,41.4,96,92,76,30.34,30.05,20,1,20,0.19
2013-9-17,64.3,50.8,39.7,49.5,44.0,38.4,96,79,47,30.45,30.25,10,0,10,0.00
2013-9-18,71.4,57.2,45.0,55.4,48.5,42.3,92,75,43,30.25,30.06,12,0,12,0.00
2013-9-19,77.3,62.8,51.4,61.4,54.6,47.4,93,76,48,30.07,29.95,9,0,9,0.00
2013-9-20,82.6,69.0,57.7,66.4,61.0,55.2,93,77,57,29.95,29.71,14,1,14,0.00
2013-9-21,71.8,63.8,54.6,62.6,60.2,53.5,97,88,69,29.71,29.56,20,1,20,0.66
2013-9-22,54.7,52.3,50.1,53.4,46.9,42.9,96,82,66,29.96,29.66,21,2,21,0.02
2013-9-23,55.9,51.3,43.9,45.1,43.5,41.6,93,75,63,30.10,29.96,18,2,18,0.00
2013-9-24,61.2,50.3,41.1,49.5,44.4,39.5,97,81,51,30.10,29.96,16,1,16,0.00
2013-9-25,66.3,53.4,44.3,54.2,47.2,42.4,94,81,52,29.97,29.91,15,0,15,0.00
2013-9-26,68.2,55.5,46.1,57.9,50.6,44.5,95,85,62,30.10,29.95,15,0,15,0.00
2013-9-27,64.6,55.3,47.8,56.4,51.5,46.4,97,88,71,30.21,30.10,18,1,18,0.00
2013-9-28,72.4,58.1,48.5,59.8,52.5,47.2,96,83,61,30.26,30.13,8,0,8,0.00
2013-9-29,74.3,63.0,51.1,58.5,53.5,48.0,90,72,52,30.13,29.94,9,1,10,0.00
2013-9-30,74.8,63.6,55.7,63.5,57.0,51.0,89,80,65,29.97,29.87,6,0,8,0.00
2013-10-1,73.6,65.3,59.4,62.6,59.7,57.1,95,83,65,29.97,29.85,10,0,10,0.00
2013-10-2,73.5,65.7,58.2,65.1,60.3,53.3,93,83,58,30.03,29.85,20,1,20,0.00
2013-10-3,70.8,60.1,51.3,58.8,53.2,47.3,95,80,45,30.08,29.97,8,0,8,0.00
2013-10-4,63.9,61.2,58.8,63.0,59.0,54.4,97,93,82,30.02,29.93,6,0,6,0.31
2013-10-5,62.3,60.3,59.1,60.4,58.1,56.3,96,92,84,30.05,29.98,9,0,9,0.03
2013-10-6,78.8,68.9,60.5,72.2,65.1,58.5,97,88,75,29.99,29.68,12,0,12,0.23
2013-10-7,72.9,62.2,50.8,66.4,56.9,47.6,95,83,73,29.98,29.55,24,2,24,0.38
2013-10-8,61.2,52.7,45.8,49.9,46.5,43.3,95,81,59,30.31,29.98,18,1,18,0.00
2013-10-9,66.3,51.0,42.4,53.6,45.7,40.8,96,83,52,30.37,30.25,12,0,12,0.00
2013-10-10,64.5,51.1,41.3,50.6,45.3,39.4,95,82,51,30.24,30.12,8,0,9,0.00
2013-10-11,65.6,52.9,44.1,55.5,48.9,42.8,96,87,64,30.12,30.07,15,0,15,0.00
2013-10-12,73.5,57.1,44.1,53.7,46.4,37.4,97,73,27,30.16,30.08,8,0,8,0.00
2013-10-13,72.8,63.2,55.8,61.0,56.6,46.2,95,79,64,30.23,30.14,8,1,9,0.03
2013-10-14,62.2,56.6,47.6,59.6,53.4,45.8,97,89,69,30.28,30.19,14,0,14,0.15
2013-10-15,67.3,55.4,43.4,57.3,51.0,42.2,97,86,67,30.25,29.90,8,0,8,0.00
2013-10-16,65.0,61.2,57.0,59.2,55.3,50.2,95,81,66,29.91,29.70,6,1,14,0.13
2013-10-17,63.1,56.6,50.8,55.2,50.9,47.3,96,82,60,29.83,29.61,9,0,9,0.23
2013-10-18,59.2,52.8,49.1,53.0,45.5,39.6,96,78,49,29.85,29.65,24,1,24,0.05
2013-10-19,62.5,54.1,44.8,48.6,44.9,41.4,91,71,52,29.85,29.56,18,1,22,0.04
2013-10-20,54.8,47.7,42.0,45.0,41.6,38.5,90,80,59,29.94,29.68,16,1,16,0.01
2013-10-21,66.6,56.0,46.0,50.3,42.4,39.8,91,63,38,29.93,29.74,21,1,21,0.00
2013-10-22,54.4,46.9,40.5,48.6,38.4,29.1,95,73,46,29.80,29.67,26,2,26,0.17
2013-10-23,46.7,41.2,36.1,39.9,35.9,31.1,89,81,70,29.78,29.65,15,0,18,0.01
2013-10-24,48.2,40.3,34.4,38.0,34.1,30.9,94,80,56,29.95,29.73,28,2,28,0.19
2013-10-25,50.2,41.9,35.0,40.0,37.2,33.5,96,84,64,30.13,29.95,18,1,18,0.02
2013-10-26,46.9,43.6,39.3,37.6,33.8,29.6,91,69,54,30.08,29.73,28,2,28,0.01
2013-10-27,46.9,42.7,38.0,38.5,36.9,34.2,91,80,65,30.01,29.75,18,1,18,0.00
2013-10-28,48.1,41.9,29.9,40.8,33.2,25.1,87,72,49,30.36,29.98,21,1,21,0.00
2013-10-29,44.4,36.8,29.4,31.9,28.6,24.0,87,72,56,30.44,30.26,9,0,9,0.00
2013-10-30,54.4,43.3,37.7,44.1,38.9,31.9,94,85,62,30.26,30.06,9,0,9,0.01
2013-10-31,66.1,55.3,43.8,59.7,51.7,39.6,95,88,76,30.06,29.33,10,1,10,0.39
2013-11-1,65.2,58.2,49.0,59.5,51.0,44.1,94,78,57,29.62,29.12,34,5,34,0.17
2013-11-2,51.8,45.8,38.4,47.3,43.5,34.4,95,92,79,29.92,29.55,21,1,21,0.00
2013-11-3,38.8,35.3,29.7,34.3,26.2,23.3,84,69,58,30.50,29.93,20,2,20,0.46
2013-11-4,42.5,34.9,25.7,26.6,22.7,17.5,89,63,38,30.63,30.40,10,1,10,0.00
2013-11-5,58.0,46.7,36.8,37.8,30.8,22.1,62,54,46,30.42,30.26,10,1,10,0.00
2013-11-6,64.2,56.1,47.1,54.5,44.9,35.5,87,66,53,30.26,29.75,18,2,18,0.01
2013-11-7,58.1,45.0,39.5,55.2,39.4,31.7,94,81,60,29.93,29.74,28,3,28,0.25
2013-11-8,42.0,39.3,36.2,34.3,31.4,27.7,89,73,59,30.17,29.90,18,4,32,0.00
2013-11-9,50.4,42.7,36.3,43.0,33.0,28.9,87,69,53,30.17,29.71,16,2,16,0.01
2013-11-10,50.4,44.8,40.6,43.1,37.1,31.4,87,74,66,30.09,29.72,42,6,42,0.03
2013-11-11,45.9,38.1,30.4,37.1,32.4,25.6,95,80,58,30.12,29.88,28,3,28,0.29
2013-11-12,32.0,29.2,26.9,27.1,23.1,17.4,89,77,66,30.38,30.06,30,4,30,0.01
2013-11-13,38.6,30.8,21.2,27.7,21.3,14.5,79,68,55,30.43,30.06,21,4,27,0.00
2013-11-14,50.4,41.5,34.8,30.8,22.5,16.8,65,48,29,30.10,30.00,16,5,33,0.00
2013-11-15,51.7,45.4,40.5,27.5,22.9,19.0,53,41,36,30.12,30.04,18,2,18,0.00
2013-11-16,58.3,50.0,42.2,40.7,33.7,24.3,70,54,41,30.25,30.04,14,2,14,0.00
2013-11-17,61.1,54.4,49.5,55.0,48.9,40.7,93,82,70,30.04,29.30,28,6,28,0.12
2013-11-18,55.4,47.1,35.8,49.7,36.9,27.5,89,68,59,29.86,29.32,45,9,58,0.03
2013-11-19,37.2,35.0,29.2,29.2,26.3,21.1,75,70,64,30.45,29.86,33,4,33,0.00
2013-11-20,37.1,29.7,24.1,22.7,20.1,17.5,81,68,45,30.61,30.45,9,2,10,0.00
2013-11-21,40.4,33.5,30.3,22.7,17.8,15.6,66,52,48,30.49,30.42,16,4,16,0.00
2013-11-22,47.3,42.0,33.8,45.9,39.9,28.8,96,92,81,30.25,29.96,36,2,42,0.25
2013-11-23,36.4,29.3,19.8,29.1,22.9,10.8,93,77,56,30.17,30.00,40,7,40,0.07
2013-11-24,23.6,20.2,17.9,17.3,14.0,9.9,91,77,62,30.42,30.16,34,6,34,0.10
2013-11-25,33.8,27.2,18.0,21.0,15.1,11.4,87,62,39,30.42,30.12,22,3,22,0.00
2013-11-26,35.7,32.9,31.6,31.1,27.5,21.3,96,81,62,30.17,29.83,21,2,21,0.23
2013-11-27,34.0,30.3,22.9,32.6,27.9,17.8,99,91,76,29.89,29.61,33,5,33,0.24
2013-11-28,27.4,22.8,19.4,18.7,16.4,14.3,90,77,62,30.45,29.89,32,4,32,0.03
2013-11-29,27.7,22.7,18.8,21.3,16.9,13.5,96,79,65,30.77,30.46,18,1,18,0.00
2013-11-30,32.1,26.2,12.5,23.7,18.5,9.4,90,73,59,30.77,30.21,21,4,21,0.00
2013-12-1,39.3,34.2,30.1,34.5,29.1,23.5,94,82,70,30.22,29.97,8,2,10,0.04
2013-12-2,40.2,36.7,32.9,34.6,33.3,30.5,94,88,74,29.97,29.87,6,0,6,0.00
2013-12-3,39.5,33.3,29.0,31.6,29.5,27.0,94,86,67,30.04,29.92,6,0,9,0.00
2013-12-4,47.3,39.3,32.4,40.7,35.2,28.9,93,85,75,30.06,29.90,14,2,14,0.00
2013-12-5,62.9,51.4,40.8,54.9,45.4,33.3,87,80,62,30.01,29.73,24,5,24,0.04
2013-12-6,40.3,34.4,31.7,34.8,28.7,23.7,93,80,70,30.25,30.01,21,3,21,0.18
2013-12-7,31.6,28.4,24.8,26.8,20.2,15.6,88,71,54,30.58,30.25,26,4,26,0.00
2013-12-8,28.9,25.4,20.3,22.9,15.8,12.5,89,67,54,30.61,30.25,20,2,20,0.01
2013-12-9,40.8,33.8,26.2,36.4,29.5,22.6,95,84,69,30.26,29.85,33,5,33,0.05
2013-12-10,33.8,25.2,20.4,25.7,16.4,10.8,91,69,56,30.08,29.93,32,4,32,0.00
2013-12-11,25.7,21.9,16.4,20.1,13.7,9.1,91,71,57,30.29,30.07,28,5,32,0.03
2013-12-12,19.3,15.2,10.6,13.8,10.5,6.1,90,81,62,30.34,30.05,27,3,27,0.00
2013-12-13,22.9,18.5,15.7,19.2,12.9,8.1,90,78,67,30.43,30.03,20,4,30,0.04
2013-12-14,20.7,12.3,7.0,19.2,8.8,2.4,94,85,77,30.50,29.80,16,3,16,0.36
2013-12-15,24.7,20.5,15.1,22.9,17.4,12.4,94,88,69,29.85,29.63,24,3,26,0.39
2013-12-16,23.3,16.3,6.0,18.3,12.1,2.8,89,83,69,30.22,29.84,30,3,30,0.00
2013-12-17,27.8,19.7,6.6,25.5,16.7,3.8,91,88,79,30.20,29.93,9,2,16,0.11
2013-12-18,32.3,29.0,25.2,24.7,22.9,21.0,92,78,66,30.08,29.93,20,3,20,0.03
2013-12-19,42.8,35.9,28.1,33.7,27.8,19.4,86,72,60,30.06,29.91,22,2,22,0.00
2013-12-20,44.9,39.4,35.5,41.9,37.3,33.2,96,92,85,30.03,29.80,10,1,10,0.18
2013-12-21,53.6,38.7,31.9,51.4,37.6,31.0,100,96,85,29.90,29.72,24,2,24,0.65
2013-12-22,44.5,35.7,31.9,43.5,35.5,31.8,100,99,92,29.97,29.61,18,1,20,0.50
2013-12-23,41.5,35.5,28.1,39.3,33.8,25.8,98,94,86,30.27,29.96,20,2,21,0.01
2013-12-24,28.1,21.1,12.7,25.8,19.5,10.3,96,93,89,30.50,30.23,22,3,22,0.00
2013-12-25,24.5,15.9,6.8,18.3,12.2,5.0,94,85,74,30.55,30.24,15,2,15,0.00
2013-12-26,31.6,27.7,23.6,28.3,21.6,16.3,91,78,69,30.29,30.08,22,3,22,0.06
2013-12-27,33.5,28.4,22.4,28.3,23.1,15.1,88,80,72,30.30,30.09,18,2,18,0.01
2013-12-28,43.7,38.6,32.8,35.5,31.9,27.4,91,77,64,30.09,29.94,22,3,22,0.00
2013-12-29,46.1,40.9,28.3,39.5,33.4,25.4,95,75,56,29.94,29.62,33,3,33,0.09
2013-12-30,28.2,18.4,14.6,25.6,14.3,9.6,91,84,77,30.26,29.76,39,4,39,0.00
2013-12-31,25.6,18.9,15.4,20.1,11.9,5.3,84,74,59,30.25,29.98,39,4,39,0.00
2014-1-1,21.2,18.0,14.1,15.4,11.6,8.3,89,76,63,30.43,30.25,27,3,27,0.00
2014-1-2,15.3,12.5,8.5,12.9,10.0,5.9,90,89,88,30.34,30.03,34,5,34,0.31